Time;durP1;ratioP1;P1;durP2;ratioP2;P2;SDS_P1;SDS_P2;PMS_P1;PMS_P2;Temp;Humidity;BMP_temperature;BMP_pressure;BME280_temperature;BME280_humidity;BME280_pressure;Samples;Min_cycle;Max_cycle;Signal;HPM_P1;HPM_P2
2022/09/08 00:00:53;;;;;;;17.98;10.08;;;;;;;6.39;56.19;101082.48;1838580;78;21303;-58
2022/09/08 00:03:59;;;;;;;17.10;10.35;;;;;;;6.36;56.25;101082.23;1838807;78;21200;-57
2022/09/08 00:07:07;;;;;;;20.30;11.15;;;;;;;6.32;56.29;101086.22;1839156;78;21185;-58
2022/09/08 00:10:15;;;;;;;23.02;11.28;;;;;;;6.29;56.36;101085.13;1819374;78;21160;-57
2022/09/08 00:13:22;;;;;;;20.92;10.78;;;;;;;6.26;56.36;101080.45;1821695;77;21188;-57
2022/09/08 00:16:28;;;;;;;16.90;10.85;;;;;;;6.23;56.47;101082.94;1839117;78;21319;-57
2022/09/08 00:19:35;;;;;;;25.15;11.25;;;;;;;6.22;56.50;101087.99;1838763;78;21200;-56
2022/09/08 00:22:42;;;;;;;20.75;11.05;;;;;;;6.20;56.61;101084.53;1839138;78;21271;-56
2022/09/08 00:25:49;;;;;;;16.95;10.60;;;;;;;6.18;56.68;101083.83;1838534;78;21307;-58
2022/09/08 00:28:55;;;;;;;22.67;11.38;;;;;;;6.16;56.71;101077.65;1838809;78;21362;-55
2022/09/08 00:32:02;;;;;;;22.93;11.90;;;;;;;6.15;56.81;101077.30;1839053;78;21173;-56
2022/09/08 00:35:14;;;;;;;18.75;10.23;;;;;;;6.15;56.86;101077.78;1838505;78;21316;-57
2022/09/08 00:38:21;;;;;;;18.10;10.88;;;;;;;6.15;56.96;101077.78;1838904;78;21378;-57
2022/09/08 00:41:29;;;;;;;19.75;11.08;;;;;;;6.13;57.09;101076.55;1838952;78;21169;-58
2022/09/08 00:44:54;;;;;;;19.67;11.28;;;;;;;6.11;57.08;101073.09;1838649;78;21724;-57
2022/09/08 00:48:10;;;;;;;20.43;11.78;;;;;;;6.10;57.13;101071.38;1829633;78;21244;-58
2022/09/08 00:51:19;;;;;;;18.37;10.50;;;;;;;6.06;57.15;101072.62;1823013;78;21186;-58
2022/09/08 00:54:27;;;;;;;20.82;10.95;;;;;;;6.04;57.20;101074.11;1822792;78;21232;-58
2022/09/08 00:57:33;;;;;;;21.50;11.05;;;;;;;6.01;57.25;101071.66;1820785;78;21185;-57
2022/09/08 01:00:43;;;;;;;21.68;11.05;;;;;;;5.99;57.32;101070.08;1825694;78;21177;-57
2022/09/08 01:03:49;;;;;;;17.12;10.30;;;;;;;5.98;57.34;101068.33;1825915;78;21327;-57
2022/09/08 01:14:22;;;;;;;19.00;10.08;;;;;;;5.89;57.37;101074.06;1826743;78;21260;-57
2022/09/08 01:17:34;;;;;;;21.52;10.98;;;;;;;5.88;57.50;101073.67;1772148;80;21220;-57
2022/09/08 01:20:49;;;;;;;;;;;;;;;5.91;57.61;101069.34;1758408;81;21174;-57
2022/09/08 01:24:09;;;;;;;16.50;9.83;;;;;;;5.93;57.70;101064.64;1822757;78;20227;-57
2022/09/08 01:27:25;;;;;;;16.37;9.63;;;;;;;5.96;57.81;101066.27;1825539;78;21189;-56
2022/09/08 01:30:32;;;;;;;21.95;11.00;;;;;;;6.00;57.96;101061.80;1823615;78;21158;-57
2022/09/08 01:33:38;;;;;;;15.68;9.73;;;;;;;6.02;57.97;101061.14;1822230;78;21211;-57
2022/09/08 01:36:46;;;;;;;21.57;10.10;;;;;;;6.05;58.07;101060.91;1824977;78;21181;-57
2022/09/08 01:39:53;;;;;;;19.75;9.63;;;;;;;6.08;58.15;101052.98;1808426;78;21327;-57
2022/09/08 01:42:59;;;;;;;18.27;9.58;;;;;;;6.07;58.10;101043.11;1805920;78;21201;-57
2022/09/08 01:46:06;;;;;;;21.70;10.43;;;;;;;6.07;58.07;101041.75;1822133;78;21189;-57
2022/09/08 01:49:11;;;;;;;19.00;10.15;;;;;;;6.08;58.17;101044.83;1832450;76;21255;-57
2022/09/08 01:52:17;;;;;;;17.35;10.23;;;;;;;6.09;58.29;101035.66;1843959;78;21196;-57
2022/09/08 01:55:23;;;;;;;19.27;10.48;;;;;;;6.09;58.32;101030.23;1843796;78;21201;-57
2022/09/08 01:58:32;;;;;;;15.48;9.45;;;;;;;6.06;58.23;101023.70;1843121;78;21326;-58
2022/09/08 02:01:39;;;;;;;22.15;10.32;;;;;;;6.06;58.26;101023.70;1844408;78;21239;-57
2022/09/08 02:04:47;;;;;;;18.82;10.08;;;;;;;6.05;58.33;101026.94;1823606;78;21204;-56
2022/09/08 02:07:53;;;;;;;17.05;10.05;;;;;;;6.05;58.29;101028.78;1804503;79;21196;-56
2022/09/08 02:11:03;;;;;;;15.98;9.65;;;;;;;6.05;58.35;101015.19;1804190;79;21180;-57
2022/09/08 02:14:09;;;;;;;22.17;9.55;;;;;;;6.06;58.37;101019.63;1782454;79;21211;-57
2022/09/08 02:17:15;;;;;;;17.50;9.75;;;;;;;6.06;58.38;101016.91;1803777;79;21184;-57
2022/09/08 02:20:20;;;;;;;15.85;9.85;;;;;;;6.09;58.45;101013.92;1804130;79;21212;-57
2022/09/08 02:23:26;;;;;;;20.97;10.10;;;;;;;6.12;58.52;101009.58;1782442;79;21338;-57
2022/09/08 02:26:38;;;;;;;19.62;9.78;;;;;;;6.18;58.63;101007.72;1804068;79;21165;-57
2022/09/08 02:29:43;;;;;;;23.10;8.85;;;;;;;6.20;58.58;101017.94;1803831;79;21693;-58
2022/09/08 02:32:49;;;;;;;17.65;8.83;;;;;;;6.27;58.70;101009.63;1804167;79;21208;-57
2022/09/08 02:35:54;;;;;;;20.45;8.53;;;;;;;6.34;58.78;101018.98;1782897;79;21358;-58
2022/09/08 02:39:01;;;;;;;13.75;7.80;;;;;;;6.39;58.75;101004.98;1783477;79;21200;-58
2022/09/08 02:42:10;;;;;;;11.95;7.37;;;;;;;6.43;58.76;101008.66;1804773;79;21303;-56
2022/09/08 02:45:17;;;;;;;14.18;8.68;;;;;;;6.50;58.87;101008.47;1805302;79;21279;-58
2022/09/08 02:48:23;;;;;;;18.10;8.08;;;;;;;6.60;59.06;101012.11;1804827;79;21193;-58
2022/09/08 02:51:29;;;;;;;16.20;8.05;;;;;;;6.68;59.12;101006.85;1780768;79;21764;-57
2022/09/08 02:54:35;;;;;;;18.27;7.47;;;;;;;6.73;59.05;101005.95;1800286;79;21186;-56
2022/09/08 02:57:42;;;;;;;16.35;8.23;;;;;;;6.79;59.21;101002.68;1799950;80;21188;-56
2022/09/08 03:00:48;;;;;;;13.35;7.28;;;;;;;6.88;59.26;101003.73;1799302;80;21204;-57
2022/09/08 03:03:55;;;;;;;17.67;8.30;;;;;;;6.91;59.22;101004.81;1799241;80;21705;-57
2022/09/08 03:07:01;;;;;;;12.95;7.22;;;;;;;6.96;59.23;101008.83;1799627;80;21216;-57
2022/09/08 03:10:07;;;;;;;17.55;8.60;;;;;;;6.99;59.24;101007.19;1777940;80;21227;-56
2022/09/08 03:13:12;;;;;;;13.75;8.30;;;;;;;7.06;59.29;101009.73;1800015;79;21227;-57
2022/09/08 03:16:20;;;;;;;16.65;7.20;;;;;;;7.10;59.26;101004.36;1799802;80;21192;-56
2022/09/08 03:19:27;;;;;;;11.83;6.55;;;;;;;7.10;59.19;101011.16;1799857;80;21173;-58
2022/09/08 03:22:34;;;;;;;16.07;6.62;;;;;;;7.12;59.31;101005.09;1799689;80;21165;-59
2022/09/08 03:25:42;;;;;;;15.03;7.45;;;;;;;7.20;59.52;101006.63;1799439;80;21232;-58
2022/09/08 03:28:48;;;;;;;15.25;7.17;;;;;;;7.30;59.72;101003.44;1799421;80;21196;-58
2022/09/08 03:31:54;;;;;;;15.98;8.10;;;;;;;7.37;59.66;101003.21;1799256;80;21181;-58
2022/09/08 03:35:00;;;;;;;14.85;8.30;;;;;;;7.42;59.67;101005.02;1799384;80;21197;-59
2022/09/08 03:38:06;;;;;;;14.00;8.30;;;;;;;7.51;59.76;101013.73;1799266;80;21176;-59
2022/09/08 03:41:17;;;;;;;20.17;8.20;;;;;;;7.58;59.75;101014.00;1799295;80;21732;-58
2022/09/08 03:44:24;;;;;;;16.97;7.78;;;;;;;7.65;59.83;101002.91;1799250;80;21208;-59
2022/09/08 03:47:30;;;;;;;14.03;8.08;;;;;;;7.72;59.92;101006.80;1798867;80;21181;-59
2022/09/08 03:50:35;;;;;;;15.25;8.28;;;;;;;7.79;59.99;101005.20;1797094;79;21204;-59
2022/09/08 03:53:41;;;;;;;12.45;8.75;;;;;;;7.87;60.01;101008.08;1798874;79;21201;-58
2022/09/08 03:56:47;;;;;;;13.80;8.23;;;;;;;7.94;60.02;100998.83;1798920;79;21255;-59
2022/09/08 03:59:57;;;;;;;14.30;8.28;;;;;;;8.01;60.05;100999.99;1799064;79;21176;-58
2022/09/08 04:03:03;;;;;;;16.87;8.40;;;;;;;8.08;60.08;101001.98;1762532;81;21212;-58
2022/09/08 04:06:11;;;;;;;15.20;8.43;;;;;;;8.17;60.09;101001.59;1804555;79;21338;-58
2022/09/08 04:09:17;;;;;;;15.88;8.60;;;;;;;8.23;60.12;100997.82;1786189;79;21209;-58
2022/09/08 04:12:23;;;;;;;24.75;8.25;;;;;;;8.32;60.21;101001.06;1804725;79;21189;-58
2022/09/08 04:15:30;;;;;;;11.85;8.05;;;;;;;8.41;60.27;100994.71;1804743;79;21495;-58
2022/09/08 04:18:37;;;;;;;17.70;9.03;;;;;;;8.52;60.33;100988.21;1804531;79;21228;-58
2022/09/08 04:21:42;;;;;;;20.68;9.20;;;;;;;8.62;60.36;100990.41;1804156;79;21181;-58
2022/09/08 04:24:49;;;;;;;15.38;7.83;;;;;;;8.73;60.40;100992.97;1804015;79;21205;-58
2022/09/08 04:27:53;;;;;;;12.53;6.65;;;;;;;8.84;60.45;100992.28;1785711;79;21224;-58
2022/09/08 04:31:00;;;;;;;11.65;5.37;;;;;;;8.96;60.49;100991.06;1804013;79;21230;-58
2022/09/08 04:34:05;;;;;;;11.63;6.03;;;;;;;9.09;60.47;100998.91;1802294;79;21240;-59
2022/09/08 04:37:13;;;;;;;10.08;6.85;;;;;;;9.23;60.50;101000.29;1803188;79;21202;-58
2022/09/08 04:40:18;;;;;;;13.70;7.62;;;;;;;9.35;60.52;100995.83;1803761;79;21200;-58
2022/09/08 04:43:25;;;;;;;15.78;8.75;;;;;;;9.46;60.41;100995.61;1804188;79;21224;-58
2022/09/08 04:46:30;;;;;;;16.62;9.95;;;;;;;9.56;60.31;100994.18;1803524;79;21224;-58
2022/09/08 04:49:36;;;;;;;16.57;9.30;;;;;;;9.66;60.31;100999.05;1800350;79;21180;-58
2022/09/08 04:52:41;;;;;;;18.15;9.88;;;;;;;9.76;60.27;101004.82;1817315;78;21180;-57
2022/09/08 04:55:47;;;;;;;19.23;10.38;;;;;;;9.85;60.23;100991.57;1842213;77;21177;-58
2022/09/08 04:58:54;;;;;;;19.60;11.25;;;;;;;9.96;60.18;100986.36;1832865;78;21211;-58
2022/09/08 05:02:01;;;;;;;22.82;11.20;;;;;;;10.07;60.16;100992.95;1821496;78;21682;-58
2022/09/08 05:05:08;;;;;;;20.62;11.25;;;;;;;10.18;60.14;100990.03;1842837;77;21201;-58
2022/09/08 05:08:13;;;;;;;17.40;11.08;;;;;;;10.31;60.13;100995.93;1832704;78;21228;-57
2022/09/08 05:11:20;;;;;;;21.95;10.98;;;;;;;10.42;60.13;100992.44;1810467;79;21495;-56
2022/09/08 05:14:25;;;;;;;18.45;10.58;;;;;;;10.54;60.12;100984.83;1810210;79;21271;-57
2022/09/08 05:17:33;;;;;;;16.65;9.95;;;;;;;10.66;60.09;100984.02;1839069;77;21256;-56
2022/09/08 05:20:40;;;;;;;16.40;9.65;;;;;;;10.76;60.11;100993.86;1793509;79;21218;-59
2022/09/08 05:23:46;;;;;;;16.42;10.05;;;;;;;10.86;60.08;100994.59;1807305;79;22202;-57
2022/09/08 05:26:52;;;;;;;16.57;9.30;;;;;;;10.98;60.06;100999.28;1807689;79;21160;-59
2022/09/08 05:30:02;;;;;;;15.65;8.90;;;;;;;11.06;59.96;100991.10;1806513;79;21216;-57
2022/09/08 05:33:09;;;;;;;18.95;9.15;;;;;;;11.14;59.98;100985.66;1823437;78;21223;-59
2022/09/08 05:36:22;;;;;;;15.95;9.43;;;;;;;11.22;60.04;100987.94;1823000;78;21148;-58
2022/09/08 05:39:28;;;;;;;17.07;9.50;;;;;;;11.34;60.09;100992.58;1837839;77;21195;-58
2022/09/08 05:42:34;;;;;;;18.92;8.13;;;;;;;11.46;60.07;100986.66;1828727;78;21216;-58
2022/09/08 05:45:39;;;;;;;11.85;7.70;;;;;;;11.58;60.11;100994.91;1828586;78;21170;-58
2022/09/08 05:48:46;;;;;;;12.55;7.28;;;;;;;11.70;60.13;101000.97;1820131;78;21318;-61
2022/09/08 05:51:55;;;;;;;17.48;7.60;;;;;;;11.80;60.12;100997.55;1827095;77;21175;-59
2022/09/08 05:55:01;;;;;;;12.53;7.55;;;;;;;11.92;60.16;100993.47;1830158;77;21800;-61
2022/09/08 05:58:07;;;;;;;12.35;7.70;;;;;;;12.05;60.18;100986.94;1835786;78;21161;-59
2022/09/08 06:01:17;;;;;;;19.73;9.93;;;;;;;12.18;60.16;100998.27;1831124;78;21244;-58
2022/09/08 06:04:24;;;;;;;17.57;8.90;;;;;;;12.34;60.14;100994.16;1785697;79;21560;-57
2022/09/08 06:07:33;;;;;;;52.80;28.67;;;;;;;12.50;60.14;101007.88;1831997;78;21208;-60
2022/09/08 06:10:41;;;;;;;247.52;123.85;;;;;;;12.63;60.08;101005.47;1812780;77;21682;-59
2022/09/08 06:13:46;;;;;;;82.50;43.95;;;;;;;12.76;60.07;100999.44;1824944;77;22001;-60
2022/09/08 06:16:51;;;;;;;28.38;17.05;;;;;;;12.88;60.07;100994.77;1821840;78;21169;-59
2022/09/08 06:19:59;;;;;;;20.12;10.82;;;;;;;13.00;60.04;100993.37;1828328;78;21215;-59
2022/09/08 06:23:05;;;;;;;18.70;11.40;;;;;;;13.09;60.04;100989.59;1827913;78;21549;-60
2022/09/08 06:26:31;;;;;;;18.60;8.20;;;;;;;13.16;59.99;101002.11;1832887;78;21231;-60
2022/09/08 06:30:11;;;;;;;15.50;7.80;;;;;;;13.25;59.98;100997.78;1828496;78;21281;-59
2022/09/08 06:33:20;;;;;;;20.15;10.15;;;;;;;13.36;60.01;100994.64;1810270;78;21192;-59
2022/09/08 06:36:33;;;;;;;14.53;8.20;;;;;;;13.52;60.15;100997.28;1823388;77;21772;-58
2022/09/08 06:39:42;;;;;;;13.58;7.55;;;;;;;13.74;60.24;101003.02;1828704;78;21239;-60
2022/09/08 06:43:11;;;;;;;19.80;10.43;;;;;;;13.96;60.34;101000.80;1813250;79;21550;-59
2022/09/08 06:46:24;;;;;;;18.00;7.47;;;;;;;14.22;60.45;101002.69;1809415;78;21741;-59
2022/09/08 06:49:35;;;;;;;13.40;6.80;;;;;;;14.50;60.48;101003.85;1823844;77;21196;-58
2022/09/08 06:52:55;;;;;;;13.40;6.62;;;;;;;14.73;60.46;101001.38;1808087;77;21338;-59
2022/09/08 06:56:23;;;;;;;10.13;6.42;;;;;;;14.98;60.46;100995.94;1823284;76;21284;-56
2022/09/08 06:59:52;;;;;;;17.82;7.05;;;;;;;15.22;60.46;100998.97;1799222;77;21192;-57
2022/09/08 07:03:18;;;;;;;11.93;6.40;;;;;;;15.47;60.54;100998.16;1831642;78;21244;-57
2022/09/08 07:06:26;;;;;;;13.95;6.87;;;;;;;15.68;60.60;101008.72;1842619;78;21946;-55
2022/09/08 07:09:43;;;;;;;14.50;6.15;;;;;;;15.83;60.54;101016.45;1824811;78;21235;-57
2022/09/08 07:13:04;;;;;;;12.88;6.53;;;;;;;15.91;60.47;101013.58;1799299;78;21780;-56
2022/09/08 07:16:25;;;;;;;13.80;6.22;;;;;;;15.98;60.45;101011.73;1834180;77;21804;-57
2022/09/08 07:19:35;;;;;;;10.45;6.08;;;;;;;16.04;60.41;101014.25;1842159;78;21251;-57
2022/09/08 07:23:05;;;;;;;12.73;8.10;;;;;;;16.12;60.40;101019.65;1843408;78;21208;-56
2022/09/08 07:26:28;;;;;;;16.50;7.87;;;;;;;16.14;60.32;101028.06;1820945;78;21247;-57
2022/09/08 07:29:57;;;;;;;18.32;6.28;;;;;;;16.18;60.31;101025.25;1811211;79;21224;-58
2022/09/08 07:33:12;;;;;;;10.20;6.12;;;;;;;16.23;60.33;101026.90;1811325;79;21761;-57
2022/09/08 07:36:45;;;;;;;11.73;5.15;;;;;;;16.29;60.33;101024.73;1811489;78;21347;-58
2022/09/08 07:40:07;;;;;;;14.58;7.03;;;;;;;16.34;60.24;101026.38;1819054;78;21417;-60
2022/09/08 07:43:23;;;;;;;9.15;4.80;;;;;;;16.34;60.25;101019.47;1838986;78;21807;-59
2022/09/08 07:46:42;;;;;;;10.08;4.87;;;;;;;16.35;60.26;101015.64;1830385;78;21856;-58
2022/09/08 07:51:15;;;;;;;6.50;4.08;;;;;;;16.38;60.36;101019.91;1818033;78;21740;-59
2022/09/08 07:54:23;;;;;;;9.88;4.22;;;;;;;16.48;60.50;101021.84;1802453;79;21253;-60
2022/09/08 07:58:10;;;;;;;8.30;3.92;;;;;;;16.71;60.69;101016.11;1815760;78;21181;-60
2022/09/08 08:02:07;;;;;;;6.40;3.95;;;;;;;16.94;60.73;101017.56;1810201;79;21266;-59
2022/09/08 08:05:28;;;;;;;6.22;3.98;;;;;;;17.04;60.72;101013.92;1749219;78;21252;-59
2022/09/08 08:09:09;;;;;;;5.85;3.42;;;;;;;17.18;60.74;101012.95;1811499;78;21198;-59
2022/09/08 08:12:37;;;;;;;7.55;4.22;;;;;;;17.36;60.77;101012.42;1804555;78;21197;-59
2022/09/08 08:15:50;;;;;;;8.15;3.98;;;;;;;17.53;60.76;101008.27;1819446;78;21184;-59
2022/09/08 08:19:53;;;;;;;8.63;4.35;;;;;;;17.68;60.73;101015.89;1826166;78;21354;-59
2022/09/08 08:23:31;;;;;;;9.08;4.25;;;;;;;17.76;60.63;101010.17;1834055;78;21744;-59
2022/09/08 08:26:50;;;;;;;7.00;3.90;;;;;;;17.88;60.59;101008.53;1811110;79;21200;-59
2022/09/08 08:30:11;;;;;;;8.25;3.65;;;;;;;18.01;60.50;101002.18;1829529;78;21224;-59
2022/09/08 08:33:26;;;;;;;10.50;4.75;;;;;;;18.08;60.36;101010.83;1814880;79;21381;-59
2022/09/08 08:36:34;;;;;;;8.53;4.85;;;;;;;18.08;60.27;100997.49;1811020;79;21208;-60
2022/09/08 08:39:40;;;;;;;9.53;4.22;;;;;;;18.08;60.22;101007.19;1819337;78;21455;-59
2022/09/08 08:42:56;;;;;;;8.25;4.55;;;;;;;18.11;60.24;101005.41;1827661;78;21263;-59
2022/09/08 08:46:35;;;;;;;12.25;5.53;;;;;;;18.12;60.20;100996.89;1788570;77;21141;-59
2022/09/08 08:50:28;;;;;;;;;;;;;;;18.17;60.11;100994.31;1826629;77;22136;-60
2022/09/08 08:53:59;;;;;;;8.35;4.42;;;;;;;18.21;60.12;101002.55;1809946;79;20291;-59
2022/09/08 08:57:35;;;;;;;9.68;5.33;;;;;;;18.22;60.15;101000.64;1806133;79;21346;-59
2022/09/08 09:00:50;;;;;;;9.70;5.35;;;;;;;18.21;60.01;100985.92;1811070;79;21192;-56
2022/09/08 09:04:48;;;;;;;10.10;5.10;;;;;;;18.14;59.89;100986.42;1814063;78;21407;-59
2022/09/08 09:08:53;;;;;;;9.40;5.45;;;;;;;18.07;59.93;100989.73;1809676;79;21180;-56
2022/09/08 09:12:05;;;;;;;14.30;5.62;;;;;;;17.95;59.96;100992.77;1808905;79;21263;-57
2022/09/08 09:15:26;;;;;;;12.33;5.75;;;;;;;17.73;59.91;100982.90;1810709;79;21247;-56
2022/09/08 09:19:10;;;;;;;9.90;6.08;;;;;;;17.44;60.00;100995.64;1809600;79;21212;-58
2022/09/08 09:22:57;;;;;;;10.25;4.97;;;;;;;17.13;60.17;100996.09;1695751;81;21703;-56
2022/09/08 09:26:09;;;;;;;10.05;4.97;;;;;;;16.88;60.29;101003.69;1811094;79;21208;-57
2022/09/08 09:29:28;;;;;;;8.48;4.50;;;;;;;16.67;60.40;101003.72;1810757;79;21212;-58
2022/09/08 09:32:55;;;;;;;8.25;5.05;;;;;;;16.51;60.55;101004.86;1811265;79;21404;-56
2022/09/08 09:36:52;;;;;;;11.38;6.17;;;;;;;16.41;60.69;100999.64;1811430;79;21370;-59
2022/09/08 09:40:23;;;;;;;9.73;4.53;;;;;;;16.37;60.89;101003.01;1811150;79;21240;-57
2022/09/08 09:43:51;;;;;;;6.37;4.60;;;;;;;16.30;61.01;100997.41;1811766;79;21227;-58
2022/09/08 09:47:15;;;;;;;8.80;4.95;;;;;;;16.31;61.19;101006.56;1811430;79;21156;-57
2022/09/08 09:51:00;;;;;;;8.35;4.50;;;;;;;16.40;61.29;101013.14;1811619;79;21148;-56
2022/09/08 09:54:32;;;;;;;6.40;4.58;;;;;;;16.47;61.33;101014.62;1811371;79;21224;-57
2022/09/08 09:58:24;;;;;;;9.08;5.40;;;;;;;16.52;61.29;101011.26;1803634;78;21673;-57
2022/09/08 10:01:40;;;;;;;16.75;7.97;;;;;;;16.56;61.38;101016.19;1799894;79;21192;-56
2022/09/08 10:05:36;;;;;;;11.33;6.42;;;;;;;16.65;61.49;101012.77;1800554;79;21208;-57
2022/09/08 10:09:10;;;;;;;10.28;5.85;;;;;;;16.75;61.57;101007.20;1799578;79;21780;-56
2022/09/08 10:12:37;;;;;;;9.83;4.83;;;;;;;16.83;61.60;101002.05;1820031;78;21177;-56
2022/09/08 10:16:01;;;;;;;7.25;5.35;;;;;;;16.90;61.65;100996.05;1827880;77;21545;-57
2022/09/08 10:19:37;;;;;;;10.80;6.15;;;;;;;16.94;61.74;101002.87;1820025;78;21337;-58
2022/09/08 10:23:05;;;;;;;7.60;5.65;;;;;;;16.97;61.86;101006.61;1832548;77;21185;-58
2022/09/08 10:26:31;;;;;;;9.75;6.30;;;;;;;16.99;61.97;101005.89;1832524;77;21200;-59
2022/09/08 10:29:43;;;;;;;7.25;5.50;;;;;;;17.00;62.09;101000.70;1823843;78;21205;-57
2022/09/08 10:33:23;;;;;;;17.52;10.25;;;;;;;17.00;62.21;101002.92;1760763;78;21321;-56
2022/09/08 10:37:06;;;;;;;8.58;4.30;;;;;;;17.02;62.28;101003.58;1800609;78;21176;-60
2022/09/08 10:40:39;;;;;;;8.58;4.72;;;;;;;16.99;62.22;101005.38;1788099;79;21185;-59
2022/09/08 10:44:13;;;;;;;9.78;4.78;;;;;;;17.01;62.28;100996.87;1804839;78;21354;-55
2022/09/08 10:47:47;;;;;;;6.78;4.50;;;;;;;17.03;62.30;100994.77;1800060;79;21694;-57
2022/09/08 10:51:22;;;;;;;7.92;5.15;;;;;;;17.00;62.17;100997.94;1820876;78;21373;-56
2022/09/08 10:55:00;;;;;;;7.30;4.55;;;;;;;16.93;62.14;100997.02;1772107;79;21213;-57
2022/09/08 10:58:43;;;;;;;6.85;4.50;;;;;;;16.93;62.15;100997.02;1824137;78;21201;-57
2022/09/08 11:02:18;;;;;;;7.72;4.80;;;;;;;16.97;62.27;100987.25;1805847;78;21721;-57
2022/09/08 11:05:54;;;;;;;7.22;4.87;;;;;;;17.07;62.32;100990.52;1788662;79;21215;-57
2022/09/08 11:09:19;;;;;;;6.58;4.58;;;;;;;17.16;62.39;100985.14;1822233;78;21220;-57
2022/09/08 11:13:01;;;;;;;7.90;4.75;;;;;;;17.29;62.47;100979.69;1842625;78;21180;-56
2022/09/08 11:16:39;;;;;;;8.18;4.50;;;;;;;17.39;62.55;100974.64;1844550;78;21176;-57
2022/09/08 11:19:54;;;;;;;7.47;4.65;;;;;;;17.68;62.86;100979.89;1842777;78;21192;-59
2022/09/08 11:23:36;;;;;;;5.37;4.45;;;;;;;18.00;62.94;100976.37;1782014;78;21255;-56
2022/09/08 11:26:54;;;;;;;7.85;4.50;;;;;;;18.29;62.98;100977.41;1809361;79;21196;-56
2022/09/08 11:30:27;;;;;;;8.18;4.85;;;;;;;18.59;62.94;100970.94;1771072;80;21176;-58
2022/09/08 11:34:01;;;;;;;9.38;4.58;;;;;;;18.83;62.87;100974.45;1810868;78;21533;-56
2022/09/08 11:37:50;;;;;;;8.45;4.70;;;;;;;18.94;62.54;100970.50;1809317;79;21180;-57
2022/09/08 11:41:24;;;;;;;8.58;4.80;;;;;;;18.92;62.31;100974.02;1809773;79;21203;-57
2022/09/08 11:44:57;;;;;;;10.32;5.10;;;;;;;18.93;62.23;100966.00;1816912;78;21259;-58
2022/09/08 11:48:54;;;;;;;10.32;5.47;;;;;;;18.91;62.12;100968.16;1837486;78;21656;-57
2022/09/08 11:52:18;;;;;;;7.25;4.95;;;;;;;18.89;62.16;100960.58;1842146;78;21737;-57
2022/09/08 11:56:06;;;;;;;6.90;4.65;;;;;;;18.89;62.13;100967.52;1842843;78;21393;-56
2022/09/08 11:59:22;;;;;;;9.03;5.47;;;;;;;19.08;62.39;100963.84;1811868;77;21330;-56
2022/09/08 12:03:06;;;;;;;8.23;5.65;;;;;;;19.38;62.45;100964.22;1826277;78;21224;-57
2022/09/08 12:06:58;;;;;;;11.22;4.95;;;;;;;19.71;62.58;100971.05;1790574;78;21346;-58
2022/09/08 12:10:45;;;;;;;9.45;5.30;;;;;;;20.07;62.47;100962.93;1708800;83;22004;-58
2022/09/08 12:14:19;;;;;;;7.85;4.90;;;;;;;20.32;62.20;100968.02;1809205;78;21200;-58
2022/09/08 12:17:41;;;;;;;6.05;4.67;;;;;;;20.52;62.02;100960.38;1793325;79;21189;-58
2022/09/08 12:21:26;;;;;;;8.70;5.40;;;;;;;20.68;61.87;100955.11;1800237;79;21180;-59
2022/09/08 12:25:09;;;;;;;5.67;4.55;;;;;;;20.75;61.60;100963.41;1799798;79;21401;-60
2022/09/08 12:28:46;;;;;;;8.08;4.58;;;;;;;20.77;61.45;100952.90;1809911;78;21355;-58
2022/09/08 12:32:17;;;;;;;6.92;4.62;;;;;;;20.76;61.36;100949.78;1820126;78;21192;-58
2022/09/08 12:35:38;;;;;;;7.87;4.87;;;;;;;20.73;61.21;100948.85;1800568;79;21204;-59
2022/09/08 12:39:17;;;;;;;7.37;4.45;;;;;;;20.61;61.06;100952.91;1805145;78;21236;-58
2022/09/08 12:42:30;;;;;;;8.38;4.58;;;;;;;20.47;60.98;100949.93;1816649;78;22017;-58
2022/09/08 12:45:52;;;;;;;9.40;4.62;;;;;;;20.39;61.01;100945.20;1832687;78;21188;-56
2022/09/08 12:49:31;;;;;;;8.25;5.15;;;;;;;20.32;60.95;100941.61;1833245;78;21270;-57
2022/09/08 12:53:17;;;;;;;8.08;4.80;;;;;;;20.22;60.91;100941.25;1832738;78;21192;-58
2022/09/08 12:56:44;;;;;;;10.53;4.65;;;;;;;20.13;60.92;100939.79;1827919;78;21226;-58
2022/09/08 13:00:25;;;;;;;7.67;4.87;;;;;;;20.05;60.95;100940.05;1818852;78;21805;-59
2022/09/08 13:03:37;;;;;;;8.30;4.40;;;;;;;19.99;60.92;100943.20;1792192;80;21491;-59
2022/09/08 13:07:09;;;;;;;9.20;4.95;;;;;;;19.90;60.82;100937.57;1790120;79;21765;-60
2022/09/08 13:10:34;;;;;;;6.30;4.33;;;;;;;19.89;60.85;100932.23;1789584;80;21201;-57
2022/09/08 13:13:54;;;;;;;8.50;4.33;;;;;;;20.00;60.90;100935.70;1789359;80;21221;-57
2022/09/08 13:17:17;;;;;;;6.05;4.10;;;;;;;20.16;60.89;100936.59;1789812;80;21166;-57
2022/09/08 13:20:48;;;;;;;8.68;4.25;;;;;;;20.33;60.87;100933.56;1788699;79;21856;-59
2022/09/08 13:24:05;;;;;;;9.28;4.60;;;;;;;20.49;60.86;100920.49;1791484;78;21247;-58
2022/09/08 13:27:55;;;;;;;5.62;4.20;;;;;;;20.57;60.59;100922.99;1800957;78;21730;-57
2022/09/08 13:31:25;;;;;;;8.73;4.00;;;;;;;20.59;60.45;100926.41;1795827;77;21185;-59
2022/09/08 13:34:57;;;;;;;8.95;5.92;;;;;;;20.69;60.43;100923.97;1803120;78;21221;-58
2022/09/08 13:38:30;;;;;;;8.38;4.47;;;;;;;20.81;60.37;100913.77;1739924;82;21240;-58
2022/09/08 13:41:55;;;;;;;6.90;3.60;;;;;;;20.84;60.17;100911.92;1792445;79;21180;-57
2022/09/08 13:45:47;;;;;;;5.55;3.90;;;;;;;20.82;60.05;100908.50;1799075;78;21520;-59
2022/09/08 13:49:23;;;;;;;8.93;4.53;;;;;;;20.76;59.95;100906.65;1789700;79;21236;-57
2022/09/08 13:53:13;;;;;;;9.70;5.50;;;;;;;20.70;59.78;100910.36;1789521;78;21668;-57
2022/09/08 13:56:42;;;;;;;7.37;4.33;;;;;;;20.63;59.70;100916.51;1794392;77;21181;-57
2022/09/08 14:00:12;;;;;;;6.72;4.03;;;;;;;20.62;59.66;100916.21;1792382;78;21263;-58
2022/09/08 14:03:20;;;;;;;7.45;4.33;;;;;;;20.55;59.44;100919.61;1759706;81;21343;-58
2022/09/08 14:06:29;;;;;;;6.58;3.85;;;;;;;20.47;59.33;100929.63;1805884;78;21761;-56
2022/09/08 14:09:42;;;;;;;8.70;4.15;;;;;;;20.41;59.29;100918.86;1816145;77;21188;-56
2022/09/08 14:13:02;;;;;;;5.05;3.65;;;;;;;20.34;59.13;100917.22;1798286;79;21259;-57
2022/09/08 14:16:39;;;;;;;8.03;4.00;;;;;;;20.28;59.02;100917.56;1816558;78;21458;-57
2022/09/08 14:20:28;;;;;;;7.17;3.35;;;;;;;20.19;58.91;100921.70;1830219;78;21208;-57
2022/09/08 14:24:00;;;;;;;5.85;3.60;;;;;;;20.19;58.86;100921.70;1831579;78;21761;-56
2022/09/08 14:27:27;;;;;;;6.72;4.05;;;;;;;20.14;58.62;100922.05;1813792;77;21176;-56
2022/09/08 14:31:01;;;;;;;9.63;5.40;;;;;;;19.99;58.51;100913.16;1798198;79;22115;-55
2022/09/08 14:34:22;;;;;;;11.65;5.03;;;;;;;19.89;58.43;100916.42;1798493;79;21264;-55
2022/09/08 14:37:37;;;;;;;13.08;4.85;;;;;;;19.83;58.33;100909.52;1718279;79;21221;-56
2022/09/08 14:40:56;;;;;;;6.65;4.08;;;;;;;19.74;58.28;100908.92;1799975;79;21164;-56
2022/09/08 14:44:17;;;;;;;7.87;3.83;;;;;;;19.70;58.22;100907.67;1800230;79;21216;-55
2022/09/08 14:47:42;;;;;;;7.55;3.55;;;;;;;19.68;58.12;100911.76;1812994;78;21531;-56
2022/09/08 14:51:12;;;;;;;6.28;3.75;;;;;;;19.66;58.08;100908.34;1826349;78;21193;-57
2022/09/08 14:54:49;;;;;;;4.37;3.35;;;;;;;19.64;58.00;100914.65;1815518;77;21844;-57
2022/09/08 14:57:56;;;;;;;8.48;3.92;;;;;;;19.59;57.94;100915.84;1828107;78;21236;-56
2022/09/08 15:01:06;;;;;;;7.17;3.90;;;;;;;19.56;57.89;100914.38;1814862;77;21200;-58
2022/09/08 15:04:32;;;;;;;7.37;4.47;;;;;;;19.65;57.81;100920.51;1777059;79;21362;-57
2022/09/08 15:07:43;;;;;;;7.47;4.85;;;;;;;19.66;57.71;100918.06;1799788;79;21213;-58
2022/09/08 15:11:32;;;;;;;10.03;5.47;;;;;;;19.66;57.64;100911.13;1777279;79;21164;-58
2022/09/08 15:14:52;;;;;;;10.55;6.53;;;;;;;19.64;57.53;100910.48;1799296;79;21172;-58
2022/09/08 15:18:02;;;;;;;14.45;7.97;;;;;;;19.60;57.44;100914.79;1800728;79;21848;-57
2022/09/08 15:21:21;;;;;;;16.93;8.63;;;;;;;19.54;57.38;100917.04;1800465;79;21180;-57
2022/09/08 15:24:52;;;;;;;19.87;9.58;;;;;;;19.49;57.35;100912.71;1807448;78;21212;-57
2022/09/08 15:27:59;;;;;;;19.17;9.18;;;;;;;19.46;57.35;100921.45;1812175;77;21239;-57
2022/09/08 15:31:27;;;;;;;11.75;5.83;;;;;;;19.43;57.35;100916.34;1811278;78;21228;-57